createdAt,value
2023-11-24T00:02:52.395Z,86.59
2023-11-24T00:07:55.878Z,85.72
2023-11-24T00:12:58.192Z,87.06
2023-11-24T00:18:00.645Z,87.59
2023-11-24T00:23:04.179Z,89.20
2023-11-24T00:28:06.325Z,89.81
2023-11-24T00:33:08.568Z,89.41
2023-11-24T00:38:12.072Z,84.82
2023-11-24T00:43:14.268Z,82.03
2023-11-24T00:48:16.384Z,83.86
2023-11-24T00:53:19.612Z,84.14
2023-11-24T00:58:21.718Z,84.86
2023-11-24T01:03:24.452Z,86.94
2023-11-24T01:08:27.930Z,87.52
2023-11-24T01:13:30.130Z,88.27
2023-11-24T01:18:32.720Z,90.02
2023-11-24T01:23:36.312Z,88.96
2023-11-24T01:28:38.463Z,88.51
2023-11-24T01:33:40.668Z,87.32
2023-11-24T01:38:44.479Z,87.11
2023-11-24T01:43:57.880Z,87.34
2023-11-24T01:49:00.413Z,86.07
2023-11-24T01:54:05.226Z,83.72
2023-11-24T01:59:08.051Z,83.88
2023-11-24T02:04:10.353Z,83.77
2023-11-24T02:09:13.858Z,87.10
2023-11-24T02:14:15.893Z,86.37
2023-11-24T02:19:18.079Z,86.77
2023-11-24T02:24:21.670Z,85.47
2023-11-24T02:29:23.797Z,86.51
2023-11-24T02:34:26.073Z,86.56
2023-11-24T02:39:29.834Z,86.32
2023-11-24T02:44:32.104Z,86.23
2023-11-24T02:49:34.372Z,86.04
2023-11-24T02:54:38.133Z,86.49
2023-11-24T02:59:40.172Z,87.15
2023-11-24T03:04:42.394Z,86.69
2023-11-24T03:09:45.984Z,87.02
2023-11-24T03:14:48.126Z,89.05
2023-11-24T03:19:51.813Z,91.18
2023-11-24T03:24:55.508Z,91.62
2023-11-24T03:29:58.029Z,92.93
2023-11-24T03:35:00.146Z,93.77
2023-11-24T03:40:03.899Z,95.49
2023-11-24T03:50:10.394Z,95.41
2023-11-24T03:55:14.077Z,95.06
2023-11-24T04:00:17.040Z,93.82
2023-11-24T04:05:19.021Z,93.33
2023-11-24T04:10:23.875Z,93.93
2023-11-24T04:15:26.130Z,94.19
2023-11-24T04:20:28.476Z,93.43
2023-11-24T04:25:31.578Z,93.16
2023-11-24T04:30:33.434Z,92.93
2023-11-24T04:35:35.873Z,93.54
2023-11-24T04:40:39.386Z,92.94
2023-11-24T04:45:41.743Z,93.17
2023-11-24T04:50:43.999Z,92.88
2023-11-24T04:55:47.514Z,93.58
2023-11-24T05:00:49.408Z,94.24
2023-11-24T05:05:51.849Z,95.17
2023-11-24T05:10:55.103Z,94.95
2023-11-24T05:15:57.317Z,95.26
2023-11-24T05:20:59.479Z,96.29
2023-11-24T05:26:03.130Z,96.61
2023-11-24T05:31:05.014Z,98.16
2023-11-24T05:36:08.656Z,98.65
2023-11-24T05:41:12.216Z,100.00
2023-11-24T05:46:14.345Z,100.00
2023-11-24T05:51:16.621Z,100.00
2023-11-24T05:56:20.724Z,99.29
2023-11-24T06:01:22.899Z,99.80
2023-11-24T06:06:25.267Z,99.63
2023-11-24T06:11:28.761Z,97.17
2023-11-24T06:16:30.771Z,96.66
2023-11-24T06:21:33.149Z,95.55
2023-11-24T06:26:36.571Z,94.12
2023-11-24T06:31:38.656Z,94.45
2023-11-24T06:36:40.915Z,94.43
2023-11-24T06:41:44.639Z,93.35
2023-11-24T06:46:46.800Z,93.87
2023-11-24T06:51:49.214Z,91.96
2023-11-24T06:56:52.765Z,91.27
2023-11-24T07:01:55.138Z,92.32
2023-11-24T07:06:57.375Z,91.13
2023-11-24T07:12:00.571Z,91.23
2023-11-24T07:17:02.554Z,90.31
2023-11-24T07:22:05.630Z,89.08
2023-11-24T07:27:09.132Z,89.83
2023-11-24T07:32:11.405Z,88.85
2023-11-24T07:37:13.667Z,89.47
2023-11-24T07:42:16.934Z,90.61
2023-11-24T07:47:18.659Z,91.45
2023-11-24T07:52:20.938Z,91.53
2023-11-24T07:57:24.516Z,89.63
2023-11-24T08:02:26.737Z,89.36
2023-11-24T08:07:28.865Z,88.70
2023-11-24T08:12:32.121Z,89.21
2023-11-24T08:17:34.363Z,90.07
2023-11-24T08:22:36.803Z,89.62
2023-11-24T08:27:40.604Z,88.54
2023-11-24T08:32:45.749Z,88.49
2023-11-24T08:37:48.461Z,88.23
2023-11-24T08:42:52.441Z,87.72
2023-11-24T08:47:54.467Z,86.01
2023-11-24T08:52:56.220Z,86.75
2023-11-24T08:57:59.768Z,86.94
2023-11-24T09:03:02.310Z,85.44
2023-11-24T09:08:04.851Z,84.85
2023-11-24T09:13:08.300Z,83.95
2023-11-24T09:18:11.016Z,83.28
2023-11-24T09:23:13.448Z,82.76
2023-11-24T09:28:17.041Z,82.42
2023-11-24T09:33:19.182Z,80.63
2023-11-24T09:38:21.314Z,81.71
2023-11-24T09:43:25.741Z,82.39
2023-11-24T09:48:27.817Z,82.14
2023-11-24T09:53:31.620Z,81.35
2023-11-24T09:58:35.691Z,80.66
2023-11-24T10:03:40.200Z,80.84
2023-11-24T10:08:42.706Z,77.84
2023-11-24T10:13:50.000Z,75.47
2023-11-24T10:18:53.358Z,73.79
2023-11-24T10:23:55.684Z,73.16
2023-11-24T10:28:59.239Z,76.77
2023-11-24T10:34:01.577Z,73.67
2023-11-24T10:39:06.745Z,74.71
2023-11-24T10:44:12.275Z,73.79
2023-11-24T10:49:21.532Z,73.03
2023-11-24T10:54:25.590Z,71.67
2023-11-24T10:59:31.427Z,70.08
2023-11-24T11:04:35.091Z,70.86
2023-11-24T11:09:37.631Z,73.49
2023-11-24T11:14:41.699Z,75.77
2023-11-24T11:19:57.810Z,76.67
2023-11-24T11:25:37.160Z,74.38
2023-11-24T11:30:43.350Z,73.84
2023-11-24T11:35:46.025Z,75.34
2023-11-24T11:40:50.534Z,77.52
2023-11-24T11:45:53.918Z,77.36
2023-11-24T11:50:57.395Z,77.32
2023-11-24T11:56:02.107Z,76.65
2023-11-24T12:01:06.713Z,76.59
2023-11-24T12:06:09.119Z,74.89
2023-11-24T12:11:11.639Z,74.33
2023-11-24T12:16:14.981Z,71.47
2023-11-24T12:21:17.478Z,72.93
2023-11-24T12:26:19.528Z,74.41
2023-11-24T12:31:28.097Z,75.10
2023-11-24T12:36:30.045Z,74.35
2023-11-24T12:41:32.945Z,73.52
2023-11-24T12:46:36.562Z,73.37
2023-11-24T12:51:40.463Z,72.73
2023-11-24T12:56:42.580Z,73.47
2023-11-24T13:01:46.195Z,74.06
2023-11-24T13:06:48.394Z,74.06
2023-11-24T13:11:50.662Z,75.63
2023-11-24T13:16:54.554Z,76.61
2023-11-24T13:21:56.917Z,77.00
2023-11-24T13:26:59.016Z,78.66
2023-11-24T13:32:03.402Z,81.56
2023-11-24T13:37:05.921Z,84.75
2023-11-24T13:42:08.027Z,89.14
2023-11-24T13:47:11.552Z,89.73
2023-11-24T13:52:14.039Z,89.02
2023-11-24T13:57:16.318Z,87.99
2023-11-24T14:02:20.118Z,88.54
2023-11-24T14:07:22.756Z,88.11
2023-11-24T14:12:24.854Z,88.07
2023-11-24T14:17:28.545Z,85.63
2023-11-24T14:22:30.750Z,85.60
2023-11-24T14:27:33.594Z,85.02
2023-11-24T14:32:36.874Z,84.60
2023-11-24T14:37:38.868Z,84.31
2023-11-24T14:42:41.609Z,84.81
2023-11-24T14:47:45.480Z,86.11
2023-11-24T14:52:47.519Z,86.76
2023-11-24T14:57:49.577Z,87.91
2023-11-24T15:02:53.108Z,88.34
2023-11-24T15:07:55.191Z,88.78
2023-11-24T15:12:56.976Z,89.68
2023-11-24T15:18:00.356Z,89.47
2023-11-24T15:23:02.661Z,89.01
2023-11-24T15:28:05.945Z,87.88
2023-11-24T15:33:09.092Z,87.01
2023-11-24T15:38:10.886Z,86.98
2023-11-24T15:43:12.747Z,86.62
2023-11-24T15:48:16.100Z,85.63
2023-11-24T15:53:17.943Z,85.66
2023-11-24T15:58:20.431Z,85.99
2023-11-24T16:03:24.486Z,85.04
2023-11-24T16:08:26.237Z,86.05
2023-11-24T16:13:28.705Z,86.01
2023-11-24T16:18:35.451Z,85.47
2023-11-24T16:23:38.166Z,86.85
2023-11-24T16:28:41.170Z,88.08
2023-11-24T16:33:44.337Z,88.49
2023-11-24T16:38:46.375Z,89.36
2023-11-24T16:43:49.233Z,88.14
2023-11-24T16:48:52.339Z,88.17
2023-11-24T16:53:54.486Z,89.11
2023-11-24T16:58:56.272Z,89.50
2023-11-24T17:03:59.521Z,89.08
2023-11-24T17:09:01.335Z,89.35
2023-11-24T17:14:03.465Z,90.25
2023-11-24T17:19:07.376Z,90.89
2023-11-24T17:24:09.929Z,91.58
2023-11-24T17:29:11.935Z,91.77
2023-11-24T17:34:15.458Z,91.71
2023-11-24T17:39:18.015Z,91.39
2023-11-24T17:44:19.895Z,92.29
2023-11-24T17:49:23.408Z,92.09
2023-11-24T17:54:25.591Z,92.33
2023-11-24T17:59:27.670Z,92.36
2023-11-24T18:04:31.392Z,92.44
2023-11-24T18:09:33.663Z,91.56
2023-11-24T18:14:35.871Z,91.66
2023-11-24T18:19:39.487Z,91.43
2023-11-24T18:24:41.270Z,91.93
2023-11-24T18:29:43.729Z,92.57
2023-11-24T18:34:46.942Z,92.31
2023-11-24T18:39:48.683Z,92.68
2023-11-24T18:44:50.834Z,92.00
2023-11-24T18:49:54.025Z,92.52
2023-11-24T18:54:56.016Z,93.69
2023-11-24T18:59:58.324Z,93.09
2023-11-24T19:05:02.031Z,94.39
2023-11-24T19:10:04.698Z,94.50
2023-11-24T19:15:09.590Z,95.94
2023-11-24T19:20:13.370Z,98.62
2023-11-24T19:25:15.425Z,98.10
2023-11-24T19:30:17.639Z,98.77
2023-11-24T19:35:21.034Z,98.09
2023-11-24T19:40:23.260Z,96.28
2023-11-24T19:45:25.258Z,96.32
2023-11-24T19:50:28.582Z,96.32
2023-11-24T19:55:30.912Z,95.84
2023-11-24T20:00:32.827Z,97.10
2023-11-24T20:05:36.402Z,98.67
2023-11-24T20:10:38.767Z,99.48
2023-11-24T20:15:40.661Z,100.00
2023-11-24T20:20:44.493Z,100.00
2023-11-24T20:25:46.782Z,100.00
2023-11-24T20:30:49.917Z,100.00
2023-11-24T20:35:53.523Z,100.00
2023-11-24T20:40:58.361Z,100.00
2023-11-24T20:46:00.714Z,100.00
2023-11-24T20:51:04.366Z,100.00
2023-11-24T20:56:07.109Z,100.00
2023-11-24T21:01:09.376Z,100.00
2023-11-24T21:06:12.588Z,100.00
2023-11-24T21:11:14.461Z,100.00
2023-11-24T21:16:16.333Z,100.00
2023-11-24T21:21:20.053Z,100.00
2023-11-24T21:26:22.356Z,100.00
2023-11-24T21:31:24.598Z,100.00
2023-11-24T21:36:28.001Z,100.00
2023-11-24T21:41:30.383Z,100.00
2023-11-24T21:46:32.832Z,100.00
2023-11-24T21:51:39.527Z,100.00
2023-11-24T21:56:41.504Z,100.00
2023-11-24T22:01:43.799Z,100.00
2023-11-24T22:06:47.133Z,100.00
2023-11-24T22:11:49.005Z,100.00
2023-11-24T22:16:51.641Z,100.00
2023-11-24T22:21:54.864Z,100.00
2023-11-24T22:26:56.731Z,100.00
2023-11-24T22:31:59.379Z,100.00
2023-11-24T22:37:02.994Z,100.00
2023-11-24T22:42:05.369Z,100.00
2023-11-24T22:47:07.865Z,100.00
2023-11-24T22:52:11.530Z,100.00
2023-11-24T22:57:13.408Z,100.00
2023-11-24T23:02:15.242Z,100.00
2023-11-24T23:07:18.937Z,100.00
2023-11-24T23:12:21.330Z,100.00
2023-11-24T23:17:23.098Z,100.00
2023-11-24T23:22:34.647Z,100.00
2023-11-24T23:27:39.910Z,100.00
2023-11-24T23:32:42.202Z,100.00
2023-11-24T23:37:45.398Z,100.00
2023-11-24T23:42:47.474Z,100.00
2023-11-24T23:47:50.060Z,100.00
2023-11-24T23:52:53.749Z,100.00
2023-11-24T23:57:56.336Z,100.00
